createdAt,value
2023-05-20T00:01:34.580Z,101742.06
2023-05-20T00:04:04.498Z,101742.06
2023-05-20T00:06:34.045Z,101746.13
2023-05-20T00:09:02.152Z,101743.94
2023-05-20T00:11:30.688Z,101739.34
2023-05-20T00:13:59.096Z,101742.06
2023-05-20T00:16:27.141Z,101734.75
2023-05-20T00:18:56.922Z,101740.34
2023-05-20T00:21:26.594Z,101738.34
2023-05-20T00:23:54.978Z,101740.03
2023-05-20T00:26:23.342Z,101734.59
2023-05-20T00:28:56.057Z,101736.31
2023-05-20T00:31:24.874Z,101739.88
2023-05-20T00:33:53.983Z,101738.03
2023-05-20T00:36:22.115Z,101738.19
2023-05-20T00:38:52.403Z,101729.16
2023-05-20T00:41:21.636Z,101735.47
2023-05-20T00:43:49.711Z,101739.19
2023-05-20T00:46:18.273Z,101747.50
2023-05-20T00:48:46.433Z,101744.94
2023-05-20T00:51:15.820Z,101745.78
2023-05-20T00:53:45.025Z,101744.09
2023-05-20T00:56:14.697Z,101742.41
2023-05-20T00:58:43.508Z,101747.13
2023-05-20T01:01:11.814Z,101741.00
2023-05-20T01:03:40.403Z,101741.69
2023-05-20T01:06:08.862Z,101738.13
2023-05-20T01:08:37.032Z,101738.44
2023-05-20T01:11:07.871Z,101735.56
2023-05-20T01:13:39.985Z,101735.56
2023-05-20T01:16:10.010Z,101738.28
2023-05-20T01:18:41.150Z,101739.28
2023-05-20T01:21:10.636Z,101732.84
2023-05-20T01:23:41.315Z,101739.28
2023-05-20T01:26:13.901Z,101736.56
2023-05-20T01:28:43.848Z,101722.13
2023-05-20T01:31:15.869Z,101723.84
2023-05-20T01:33:44.619Z,101724.69
2023-05-20T01:36:13.462Z,101717.72
2023-05-20T01:38:44.722Z,101719.59
2023-05-20T01:41:13.651Z,101714.16
2023-05-20T01:43:42.242Z,101705.28
2023-05-20T01:46:10.445Z,101709.03
2023-05-20T01:48:40.231Z,101707.31
2023-05-20T01:51:09.974Z,101708.16
2023-05-20T01:53:38.518Z,101701.88
2023-05-20T01:56:08.544Z,101709.16
2023-05-20T01:58:37.156Z,101703.72
2023-05-20T02:01:05.401Z,101712.19
2023-05-20T02:03:33.834Z,101713.06
2023-05-20T02:06:01.968Z,101709.31
2023-05-20T02:08:30.265Z,101715.09
2023-05-20T02:10:58.370Z,101704.22
2023-05-20T02:13:28.280Z,101707.06
2023-05-20T02:15:57.010Z,101704.50
2023-05-20T02:18:26.814Z,101706.53
2023-05-20T02:20:54.966Z,101698.69
2023-05-20T02:23:23.091Z,101691.41
2023-05-20T02:25:51.473Z,101686.81
2023-05-20T02:28:19.892Z,101683.25
2023-05-20T02:30:51.871Z,101687.69
2023-05-20T02:33:20.102Z,101685.97
2023-05-20T02:35:48.449Z,101688.53
2023-05-20T02:38:16.632Z,101682.25
2023-05-20T02:40:46.086Z,101680.22
2023-05-20T02:43:14.192Z,101683.94
2023-05-20T02:45:42.775Z,101683.09
2023-05-20T02:48:12.474Z,101672.38
2023-05-20T02:50:41.179Z,101670.50
2023-05-20T02:53:09.320Z,101672.38
2023-05-20T02:55:37.714Z,101664.41
2023-05-20T02:58:05.788Z,101663.69
2023-05-20T03:00:41.068Z,101665.56
2023-05-20T03:03:10.415Z,101664.00
2023-05-20T03:05:42.645Z,101668.06
2023-05-20T03:08:11.260Z,101663.94
2023-05-20T03:10:39.644Z,101671.41
2023-05-20T03:13:09.631Z,101660.88
2023-05-20T03:15:39.002Z,101663.75
2023-05-20T03:18:08.631Z,101661.03
2023-05-20T03:20:38.412Z,101662.88
2023-05-20T03:23:09.457Z,101665.59
2023-05-20T03:25:38.837Z,101667.47
2023-05-20T03:28:07.178Z,101663.03
2023-05-20T03:30:37.966Z,101672.34
2023-05-20T03:33:06.487Z,101669.63
2023-05-20T03:35:35.528Z,101669.94
2023-05-20T03:38:03.927Z,101666.56
2023-05-20T03:40:34.084Z,101671.28
2023-05-20T03:43:02.267Z,101672.47
2023-05-20T03:45:30.882Z,101670.03
2023-05-20T03:48:04.738Z,101680.91
2023-05-20T03:50:35.653Z,101671.91
2023-05-20T03:53:04.029Z,101662.03
2023-05-20T03:55:40.161Z,101663.09
2023-05-20T03:58:08.684Z,101653.22
2023-05-20T04:00:37.503Z,101653.22
2023-05-20T04:03:06.049Z,101647.78
2023-05-20T04:05:34.713Z,101651.19
2023-05-20T04:08:05.462Z,101646.78
2023-05-20T04:10:34.461Z,101644.91
2023-05-20T04:13:04.371Z,101641.19
2023-05-20T04:15:35.397Z,101650.19
2023-05-20T04:18:04.193Z,101648.47
2023-05-20T04:20:33.242Z,101642.03
2023-05-20T04:23:02.342Z,101631.19
2023-05-20T04:25:30.815Z,101635.94
2023-05-20T04:27:59.981Z,101629.47
2023-05-20T04:30:30.255Z,101634.88
2023-05-20T04:32:58.752Z,101629.78
2023-05-20T04:35:27.264Z,101626.06
2023-05-20T04:37:58.636Z,101628.06
2023-05-20T04:40:27.504Z,101626.38
2023-05-20T04:42:56.006Z,101629.09
2023-05-20T04:45:24.674Z,101622.97
2023-05-20T04:47:54.541Z,101630.09
2023-05-20T04:50:22.984Z,101635.53
2023-05-20T04:52:51.938Z,101644.69
2023-05-20T04:55:21.704Z,101648.44
2023-05-20T04:57:49.975Z,101647.56
2023-05-20T05:00:18.999Z,101649.44
2023-05-20T05:02:47.842Z,101634.84
2023-05-20T05:05:17.507Z,101643.28
2023-05-20T05:07:45.562Z,101648.72
2023-05-20T05:10:15.867Z,101641.59
2023-05-20T05:12:43.972Z,101643.44
2023-05-20T05:15:12.727Z,101636.16
2023-05-20T05:17:40.855Z,101631.59
2023-05-20T05:20:09.905Z,101635.13
2023-05-20T05:22:41.521Z,101633.13
2023-05-20T05:25:10.323Z,101636.69
2023-05-20T05:27:38.958Z,101640.28
2023-05-20T05:30:08.897Z,101635.53
2023-05-20T05:32:38.028Z,101640.97
2023-05-20T05:35:08.177Z,101638.25
2023-05-20T05:37:37.128Z,101637.25
2023-05-20T05:40:09.561Z,101649.94
2023-05-20T05:42:37.772Z,101648.28
2023-05-20T05:45:07.048Z,101651.66
2023-05-20T05:47:35.189Z,101649.78
2023-05-20T05:50:03.285Z,101649.78
2023-05-20T05:52:34.470Z,101646.06
2023-05-20T05:55:04.072Z,101655.22
2023-05-20T05:57:34.527Z,101661.53
2023-05-20T06:00:04.716Z,101653.22
2023-05-20T06:02:46.175Z,101656.63
2023-05-20T06:05:21.829Z,101650.03
2023-05-20T06:07:50.255Z,101655.13
2023-05-20T06:10:18.433Z,101654.84
2023-05-20T06:12:47.958Z,101659.41
2023-05-20T06:15:16.265Z,101666.56
2023-05-20T06:17:44.589Z,101665.38
2023-05-20T06:20:14.129Z,101669.78
2023-05-20T06:22:42.317Z,101667.63
2023-05-20T06:25:10.989Z,101669.00
2023-05-20T06:27:39.120Z,101664.97
2023-05-20T06:30:10.944Z,101670.72
2023-05-20T06:32:39.569Z,101676.28
2023-05-20T06:35:08.653Z,101677.53
2023-05-20T06:37:37.254Z,101671.47
2023-05-20T06:40:06.476Z,101684.91
2023-05-20T06:42:35.457Z,101677.97
2023-05-20T06:45:05.287Z,101681.06
2023-05-20T06:47:39.005Z,101673.31
2023-05-20T06:50:09.032Z,101675.72
2023-05-20T06:52:37.732Z,101665.22
2023-05-20T06:55:06.410Z,101672.34
2023-05-20T06:57:36.860Z,101681.19
2023-05-20T07:00:05.226Z,101683.59
2023-05-20T07:02:36.373Z,101673.09
2023-05-20T07:05:06.589Z,101667.66
2023-05-20T07:07:35.420Z,101664.63
2023-05-20T07:10:05.809Z,101656.13
2023-05-20T07:12:36.158Z,101665.50
2023-05-20T07:15:06.162Z,101661.28
2023-05-20T07:17:35.277Z,101661.66
2023-05-20T07:20:04.424Z,101655.19
2023-05-20T07:22:34.469Z,101651.47
2023-05-20T07:25:11.233Z,101651.28
2023-05-20T07:27:39.856Z,101652.81
2023-05-20T07:30:08.786Z,101663.69
2023-05-20T07:32:38.302Z,101659.63
2023-05-20T07:35:07.865Z,101663.00
2023-05-20T07:37:38.083Z,101663.56
2023-05-20T07:40:07.961Z,101668.16
2023-05-20T07:42:36.361Z,101666.94
2023-05-20T07:45:04.868Z,101673.59
2023-05-20T07:47:33.104Z,101666.66
2023-05-20T07:50:01.739Z,101674.66
2023-05-20T07:52:44.101Z,101681.44
2023-05-20T07:55:22.360Z,101681.63
2023-05-20T07:57:50.949Z,101676.03
2023-05-20T08:00:20.891Z,101681.50
2023-05-20T08:02:49.161Z,101683.88
2023-05-20T08:05:23.814Z,101682.22
2023-05-20T08:07:52.603Z,101678.97
2023-05-20T08:10:25.109Z,101681.22
2023-05-20T08:12:54.751Z,101676.47
2023-05-20T08:15:23.336Z,101676.84
2023-05-20T08:17:52.136Z,101677.38
2023-05-20T08:20:21.132Z,101683.03
2023-05-20T08:22:51.188Z,101675.88
2023-05-20T08:25:20.226Z,101680.97
2023-05-20T08:27:50.056Z,101672.16
2023-05-20T08:30:18.535Z,101672.81
2023-05-20T08:32:47.237Z,101662.56
2023-05-20T08:35:15.997Z,101655.22
2023-05-20T08:37:44.201Z,101660.50
2023-05-20T08:40:13.675Z,101656.22
2023-05-20T08:42:45.461Z,101657.06
2023-05-20T08:45:18.546Z,101657.69
2023-05-20T08:47:47.738Z,101646.94
2023-05-20T08:50:16.314Z,101628.28
2023-05-20T08:52:45.413Z,101634.06
2023-05-20T08:55:16.304Z,101647.00
2023-05-20T08:57:46.179Z,101641.78
2023-05-20T09:00:17.189Z,101630.19
2023-05-20T09:02:48.213Z,101626.72
2023-05-20T09:05:16.781Z,101618.09
2023-05-20T09:07:44.919Z,101606.81
2023-05-20T09:10:12.979Z,101616.03
2023-05-20T09:12:41.338Z,101614.28
2023-05-20T09:15:10.187Z,101602.91
2023-05-20T09:17:38.871Z,101606.06
2023-05-20T09:20:11.380Z,101596.06
2023-05-20T09:22:40.204Z,101598.72
2023-05-20T09:25:09.622Z,101593.47
2023-05-20T09:27:37.904Z,101592.69
2023-05-20T09:30:08.265Z,101590.34
2023-05-20T09:32:36.557Z,101579.16
2023-05-20T09:35:06.415Z,101591.19
2023-05-20T09:37:36.956Z,101584.41
2023-05-20T09:40:06.575Z,101574.59
2023-05-20T09:42:39.381Z,101567.72
2023-05-20T09:45:09.527Z,101565.72
2023-05-20T09:47:40.025Z,101567.44
2023-05-20T09:50:09.696Z,101560.97
2023-05-20T09:52:39.973Z,101559.66
2023-05-20T09:55:10.483Z,101548.84
2023-05-20T09:57:39.031Z,101550.72
2023-05-20T10:00:08.749Z,101550.09
2023-05-20T10:02:43.859Z,101535.88
2023-05-20T10:05:14.117Z,101536.88
2023-05-20T10:07:53.933Z,101539.56
2023-05-20T10:10:28.898Z,101527.50
2023-05-20T10:13:03.707Z,101537.72
2023-05-20T10:15:37.988Z,101530.94
2023-05-20T10:18:10.388Z,101529.38
2023-05-20T10:20:46.288Z,101523.34
2023-05-20T10:23:23.775Z,101524.63
2023-05-20T10:25:52.738Z,101526.31
2023-05-20T10:28:29.559Z,101514.13
2023-05-20T10:30:57.694Z,101514.69
2023-05-20T10:33:27.085Z,101506.47
2023-05-20T10:35:55.608Z,101507.94
2023-05-20T10:38:25.073Z,101509.97
2023-05-20T10:40:53.314Z,101501.81
2023-05-20T10:43:27.554Z,101505.94
2023-05-20T10:45:56.270Z,101499.66
2023-05-20T10:48:29.286Z,101500.75
2023-05-20T10:50:58.375Z,101494.03
2023-05-20T10:53:33.628Z,101497.25
2023-05-20T10:56:02.732Z,101491.78
2023-05-20T10:58:38.146Z,101490.75
2023-05-20T11:01:06.717Z,101496.25
2023-05-20T11:03:36.262Z,101497.25
2023-05-20T11:06:12.124Z,101493.28
2023-05-20T11:08:41.756Z,101498.28
2023-05-20T11:11:10.105Z,101494.88
2023-05-20T11:13:38.363Z,101493.56
2023-05-20T11:16:06.991Z,101487.41
2023-05-20T11:18:35.177Z,101491.38
2023-05-20T11:21:03.761Z,101492.25
2023-05-20T11:23:31.991Z,101487.25
2023-05-20T11:26:01.564Z,101491.22
2023-05-20T11:28:33.302Z,101493.63
2023-05-20T11:31:01.715Z,101489.41
2023-05-20T11:33:31.246Z,101483.38
2023-05-20T11:35:59.361Z,101491.22
2023-05-20T11:38:28.053Z,101485.31
2023-05-20T11:40:56.912Z,101485.31
2023-05-20T11:43:26.748Z,101478.97
2023-05-20T11:45:55.921Z,101481.09
2023-05-20T11:48:25.376Z,101489.75
2023-05-20T11:50:55.452Z,101473.91
2023-05-20T11:53:24.675Z,101480.66
2023-05-20T11:55:54.394Z,101471.56
2023-05-20T11:58:22.940Z,101475.38
2023-05-20T12:01:01.761Z,101473.66
2023-05-20T12:03:37.916Z,101469.69
2023-05-20T12:06:06.228Z,101460.78
2023-05-20T12:08:34.456Z,101461.22
2023-05-20T12:11:02.842Z,101464.59
2023-05-20T12:13:31.788Z,101453.59
2023-05-20T12:16:02.087Z,101447.88
2023-05-20T12:18:30.320Z,101449.75
2023-05-20T12:20:58.688Z,101449.78
2023-05-20T12:23:27.043Z,101444.47
2023-05-20T12:25:55.322Z,101444.50
2023-05-20T12:28:23.402Z,101433.69
2023-05-20T12:30:51.417Z,101440.66
2023-05-20T12:33:21.064Z,101446.00
2023-05-20T12:35:49.148Z,101437.31
2023-05-20T12:38:17.251Z,101440.47
2023-05-20T12:40:45.649Z,101432.66
2023-05-20T12:43:13.756Z,101432.00
2023-05-20T12:45:41.810Z,101430.75
2023-05-20T12:48:10.330Z,101426.53
2023-05-20T12:50:39.968Z,101425.25
2023-05-20T12:53:08.240Z,101425.50
2023-05-20T12:55:36.326Z,101419.34
2023-05-20T12:58:04.432Z,101420.16
2023-05-20T13:00:32.684Z,101421.03
2023-05-20T13:03:01.530Z,101416.81
2023-05-20T13:05:30.133Z,101420.19
2023-05-20T13:07:59.856Z,101420.00
2023-05-20T13:10:28.018Z,101418.06
2023-05-20T13:12:56.225Z,101416.19
2023-05-20T13:15:24.965Z,101412.56
2023-05-20T13:17:53.128Z,101408.34
2023-05-20T13:20:21.680Z,101404.31
2023-05-20T13:22:50.303Z,101406.84
2023-05-20T13:25:20.067Z,101404.47
2023-05-20T13:27:48.184Z,101406.59
2023-05-20T13:30:16.413Z,101404.09
2023-05-20T13:32:44.601Z,101392.84
2023-05-20T13:35:13.308Z,101393.47
2023-05-20T13:37:41.387Z,101393.03
2023-05-20T13:40:10.173Z,101389.31
2023-05-20T13:42:40.204Z,101388.88
2023-05-20T13:45:08.898Z,101390.16
2023-05-20T13:47:37.211Z,101383.38
2023-05-20T13:50:05.790Z,101382.50
2023-05-20T13:52:33.873Z,101383.16
2023-05-20T13:55:01.916Z,101378.94
2023-05-20T13:57:30.328Z,101372.00
2023-05-20T13:59:59.851Z,101374.31
2023-05-20T14:02:28.312Z,101370.03
2023-05-20T14:04:56.962Z,101359.75
2023-05-20T14:07:25.078Z,101353.00
2023-05-20T14:09:53.275Z,101355.31
2023-05-20T14:12:23.023Z,101354.50
2023-05-20T14:14:51.226Z,101359.78
2023-05-20T14:17:21.029Z,101352.63
2023-05-20T14:19:49.249Z,101346.69
2023-05-20T14:22:17.323Z,101348.84
2023-05-20T14:24:45.381Z,101347.16
2023-05-20T14:27:14.272Z,101350.50
2023-05-20T14:29:42.422Z,101343.72
2023-05-20T14:32:11.664Z,101339.50
2023-05-20T14:34:41.262Z,101334.19
2023-05-20T14:37:10.112Z,101330.63
2023-05-20T14:39:38.284Z,101340.31
2023-05-20T14:42:07.151Z,101340.28
2023-05-20T14:44:35.534Z,101337.09
2023-05-20T14:47:04.434Z,101335.13
2023-05-20T14:49:32.994Z,101336.41
2023-05-20T14:52:02.515Z,101327.78
2023-05-20T14:54:30.630Z,101331.41
2023-05-20T14:56:58.756Z,101323.38
2023-05-20T14:59:27.005Z,101319.13
2023-05-20T15:01:55.197Z,101317.81
2023-05-20T15:04:23.293Z,101324.34
2023-05-20T15:07:03.052Z,101318.84
2023-05-20T15:09:41.007Z,101315.22
2023-05-20T15:12:10.025Z,101316.91
2023-05-20T15:14:38.464Z,101308.66
2023-05-20T15:17:06.617Z,101302.16
2023-05-20T15:19:36.981Z,101318.66
2023-05-20T15:22:12.004Z,101313.31
2023-05-20T15:24:40.188Z,101307.31
2023-05-20T15:27:08.264Z,101309.28
2023-05-20T15:29:38.110Z,101304.78
2023-05-20T15:32:07.328Z,101302.41
2023-05-20T15:34:35.931Z,101307.19
2023-05-20T15:37:04.341Z,101307.63
2023-05-20T15:39:33.925Z,101304.56
2023-05-20T15:42:03.037Z,101299.13
2023-05-20T15:44:31.129Z,101309.38
2023-05-20T15:46:59.303Z,101299.09
2023-05-20T15:49:27.556Z,101305.28
2023-05-20T15:52:02.896Z,101292.22
2023-05-20T15:54:31.421Z,101300.00
2023-05-20T15:57:03.099Z,101301.09
2023-05-20T15:59:31.634Z,101296.44
2023-05-20T16:02:00.035Z,101303.22
2023-05-20T16:04:28.213Z,101296.84
2023-05-20T16:06:56.425Z,101295.63
2023-05-20T16:09:24.655Z,101291.16
2023-05-20T16:11:52.805Z,101290.31
2023-05-20T16:14:22.776Z,101289.91
2023-05-20T16:16:50.835Z,101287.56
2023-05-20T16:19:19.073Z,101295.59
2023-05-20T16:21:47.257Z,101289.66
2023-05-20T16:24:15.793Z,101284.41
2023-05-20T16:26:44.075Z,101281.25
2023-05-20T16:29:13.042Z,101271.09
2023-05-20T16:31:46.807Z,101274.47
2023-05-20T16:34:15.902Z,101276.16
2023-05-20T16:36:45.282Z,101272.75
2023-05-20T16:39:13.580Z,101264.53
2023-05-20T16:41:41.962Z,101259.47
2023-05-20T16:44:10.269Z,101265.59
2023-05-20T16:46:38.400Z,101262.22
2023-05-20T16:49:08.144Z,101256.97
2023-05-20T16:51:36.576Z,101256.75
2023-05-20T16:54:04.993Z,101253.75
2023-05-20T16:56:33.480Z,101244.06
2023-05-20T16:59:01.593Z,101243.22
2023-05-20T17:01:29.815Z,101239.41
2023-05-20T17:03:58.200Z,101237.72
2023-05-20T17:06:27.713Z,101243.78
2023-05-20T17:08:56.726Z,101241.88
2023-05-20T17:11:24.807Z,101236.88
2023-05-20T17:13:52.985Z,101242.97
2023-05-20T17:16:21.426Z,101236.47
2023-05-20T17:18:49.578Z,101236.44
2023-05-20T17:21:20.451Z,101234.34
2023-05-20T17:23:52.219Z,101236.88
2023-05-20T17:26:20.631Z,101235.19
2023-05-20T17:28:48.987Z,101236.91
2023-05-20T17:31:17.090Z,101229.72
2023-05-20T17:33:45.388Z,101233.50
2023-05-20T17:36:14.020Z,101234.34
2023-05-20T17:38:42.368Z,101231.00
2023-05-20T17:41:11.924Z,101225.09
2023-05-20T17:43:40.171Z,101228.03
2023-05-20T17:46:08.535Z,101224.25
2023-05-20T17:48:36.942Z,101229.31
2023-05-20T17:51:05.304Z,101231.00
2023-05-20T17:53:33.344Z,101234.81
2023-05-20T17:56:01.481Z,101235.44
2023-05-20T17:58:33.838Z,101236.47
2023-05-20T18:01:02.459Z,101224.22
2023-05-20T18:03:30.679Z,101217.47
2023-05-20T18:05:58.930Z,101218.72
2023-05-20T18:08:26.985Z,101223.38
2023-05-20T18:10:55.786Z,101223.81
2023-05-20T18:13:23.924Z,101224.63
2023-05-20T18:15:53.867Z,101225.47
2023-05-20T18:18:21.963Z,101222.47
2023-05-20T18:20:50.259Z,101219.50
2023-05-20T18:23:18.431Z,101223.28
2023-05-20T18:25:46.670Z,101215.88
2023-05-20T18:28:15.281Z,101226.63
2023-05-20T18:30:43.396Z,101226.56
2023-05-20T18:33:13.790Z,101224.66
2023-05-20T18:35:42.116Z,101218.06
2023-05-20T18:38:10.203Z,101223.47
2023-05-20T18:40:38.481Z,101230.19
2023-05-20T18:43:06.895Z,101229.53
2023-05-20T18:45:35.007Z,101234.28
2023-05-20T18:48:03.358Z,101235.09
2023-05-20T18:50:33.353Z,101235.66
2023-05-20T18:53:01.761Z,101233.75
2023-05-20T18:55:29.891Z,101238.31
2023-05-20T18:57:58.288Z,101237.03
2023-05-20T19:00:26.685Z,101231.28
2023-05-20T19:02:58.108Z,101243.84
2023-05-20T19:05:26.765Z,101243.56
2023-05-20T19:07:56.273Z,101237.22
2023-05-20T19:10:24.500Z,101239.91
2023-05-20T19:12:52.691Z,101234.16
2023-05-20T19:15:21.122Z,101241.66
2023-05-20T19:17:49.432Z,101238.22
2023-05-20T19:20:17.600Z,101236.03
2023-05-20T19:22:45.736Z,101236.84
2023-05-20T19:25:15.487Z,101240.22
2023-05-20T19:27:44.163Z,101248.50
2023-05-20T19:30:12.692Z,101253.31
2023-05-20T19:32:40.986Z,101253.06
2023-05-20T19:35:09.731Z,101263.28
2023-05-20T19:37:37.957Z,101261.75
2023-05-20T19:40:07.040Z,101261.75
2023-05-20T19:42:36.656Z,101260.06
2023-05-20T19:45:05.131Z,101266.09
2023-05-20T19:47:33.334Z,101266.69
2023-05-20T19:50:01.590Z,101267.06
2023-05-20T19:52:29.702Z,101258.97
2023-05-20T19:54:57.822Z,101265.19
2023-05-20T19:57:26.058Z,101263.41
2023-05-20T19:59:56.016Z,101254.47
2023-05-20T20:02:24.145Z,101265.50
2023-05-20T20:04:53.069Z,101258.78
2023-05-20T20:07:21.756Z,101252.78
2023-05-20T20:09:51.752Z,101256.06
2023-05-20T20:12:19.944Z,101258.00
2023-05-20T20:14:48.393Z,101264.03
2023-05-20T20:17:19.554Z,101259.97
2023-05-20T20:19:48.798Z,101267.41
2023-05-20T20:22:17.549Z,101266.63
2023-05-20T20:24:46.107Z,101253.25
2023-05-20T20:27:15.132Z,101265.25
2023-05-20T20:29:43.569Z,101270.94
2023-05-20T20:32:12.016Z,101268.91
2023-05-20T20:34:41.608Z,101272.50
2023-05-20T20:37:09.705Z,101268.53
2023-05-20T20:39:37.918Z,101275.69
2023-05-20T20:42:06.734Z,101278.13
2023-05-20T20:44:34.936Z,101270.47
2023-05-20T20:47:04.327Z,101268.06
2023-05-20T20:49:33.113Z,101278.47
2023-05-20T20:52:03.412Z,101267.59
2023-05-20T20:54:33.500Z,101271.69
2023-05-20T20:57:02.821Z,101265.41
2023-05-20T20:59:31.050Z,101265.41
2023-05-20T21:01:59.085Z,101267.94
2023-05-20T21:04:28.081Z,101268.78
2023-05-20T21:06:56.415Z,101273.38
2023-05-20T21:09:26.644Z,101268.78
2023-05-20T21:11:57.305Z,101261.63
2023-05-20T21:14:25.879Z,101263.69
2023-05-20T21:16:54.148Z,101260.47
2023-05-20T21:19:22.574Z,101262.72
2023-05-20T21:21:50.714Z,101263.44
2023-05-20T21:24:19.814Z,101268.22
2023-05-20T21:26:49.341Z,101266.38
2023-05-20T21:29:17.498Z,101271.66
2023-05-20T21:31:46.150Z,101259.47
2023-05-20T21:34:14.584Z,101270.56
2023-05-20T21:36:42.684Z,101255.44
2023-05-20T21:39:10.882Z,101256.13
2023-05-20T21:41:39.368Z,101255.97
2023-05-20T21:44:09.342Z,101260.91
2023-05-20T21:46:37.738Z,101256.84
2023-05-20T21:49:06.046Z,101265.69
2023-05-20T21:51:34.044Z,101260.75
2023-05-20T21:54:02.485Z,101271.97
2023-05-20T21:56:31.297Z,101260.91
2023-05-20T21:58:59.669Z,101253.13
2023-05-20T22:01:29.210Z,101257.16
2023-05-20T22:03:57.630Z,101258.84
2023-05-20T22:06:26.025Z,101251.56
2023-05-20T22:08:54.128Z,101267.66
2023-05-20T22:11:23.276Z,101263.94
2023-05-20T22:13:51.447Z,101277.13
2023-05-20T22:16:19.799Z,101276.31
2023-05-20T22:18:49.905Z,101281.38
2023-05-20T22:21:18.061Z,101295.06
2023-05-20T22:23:46.432Z,101298.84
2023-05-20T22:26:14.888Z,101300.50
2023-05-20T22:28:43.254Z,101298.31
2023-05-20T22:31:11.527Z,101291.72
2023-05-20T22:33:41.624Z,101290.69
2023-05-20T22:36:11.141Z,101286.44
2023-05-20T22:38:39.476Z,101292.56
2023-05-20T22:41:07.615Z,101284.25
2023-05-20T22:43:36.642Z,101288.34
2023-05-20T22:46:04.810Z,101287.16
2023-05-20T22:48:32.958Z,101278.16
2023-05-20T22:51:03.937Z,101278.84
2023-05-20T22:53:33.938Z,101280.53
2023-05-20T22:56:01.981Z,101282.56
2023-05-20T22:58:39.379Z,101295.78
2023-05-20T23:01:08.416Z,101296.13
2023-05-20T23:03:36.894Z,101292.72
2023-05-20T23:06:05.168Z,101284.75
2023-05-20T23:08:34.922Z,101294.75
2023-05-20T23:11:03.021Z,101285.94
2023-05-20T23:13:31.479Z,101291.69
2023-05-20T23:16:01.544Z,101292.03
2023-05-20T23:18:31.469Z,101295.75
2023-05-20T23:20:59.706Z,101285.22
2023-05-20T23:23:31.816Z,101290.97
2023-05-20T23:26:02.206Z,101293.31
2023-05-20T23:28:30.864Z,101296.22
2023-05-20T23:30:59.978Z,101288.41
2023-05-20T23:33:29.941Z,101285.84
2023-05-20T23:35:58.460Z,101287.84
2023-05-20T23:38:26.624Z,101283.47
2023-05-20T23:40:55.072Z,101287.19
2023-05-20T23:43:24.769Z,101291.75
2023-05-20T23:45:54.979Z,101287.19
2023-05-20T23:48:24.691Z,101292.28
2023-05-20T23:50:53.429Z,101301.78
2023-05-20T23:53:22.449Z,101293.00
2023-05-20T23:55:52.180Z,101298.78
2023-05-20T23:58:20.699Z,101317.13
